Time;durP1;ratioP1;P1;durP2;ratioP2;P2;SDS_P1;SDS_P2;PMS_P1;PMS_P2;Temp;Humidity;BMP_temperature;BMP_pressure;BME280_temperature;BME280_humidity;BME280_pressure;Samples;Min_cycle;Max_cycle;Signal;HPM_P1;HPM_P2
2022/01/26 00:08:13;;;;;;;51.83;18.67;;;0.90;99.90;;;;;;4358975;28;658576;-71
2022/01/26 00:11:00;;;;;;;58.17;20.50;;;0.80;99.90;;;;;;4341614;28;660001;-71
2022/01/26 00:13:48;;;;;;;43.87;17.07;;;0.90;99.90;;;;;;4363584;28;659125;-72
2022/01/26 00:16:39;;;;;;;40.83;15.60;;;0.90;99.90;;;;;;4358515;28;659744;-71
2022/01/26 00:19:41;;;;;;;39.77;16.30;;;0.90;99.90;;;;;;4358512;28;658949;-71
2022/01/26 00:22:54;;;;;;;39.97;14.53;;;0.90;99.90;;;;;;4339631;28;658742;-71
2022/01/26 00:25:57;;;;;;;43.25;16.30;;;0.90;99.90;;;;;;4358413;28;658991;-72
2022/01/26 00:29:07;;;;;;;45.27;18.53;;;0.90;99.90;;;;;;4345544;28;659404;-71
2022/01/26 00:33:06;;;;;;;44.17;16.90;;;0.90;99.90;;;;;;4322679;28;658813;-72
2022/01/26 00:41:37;;;;;;;40.80;16.27;;;0.90;99.90;;;;;;4316852;28;659665;-72
2022/01/26 00:44:35;;;;;;;50.63;18.80;;;0.80;99.90;;;;;;4345338;28;658776;-72
2022/01/26 00:47:24;;;;;;;45.07;17.93;;;0.80;99.90;;;;;;4341581;28;659063;-71
2022/01/26 00:50:15;;;;;;;32.37;13.57;;;0.80;99.90;;;;;;4363771;28;659383;-71
2022/01/26 00:53:04;;;;;;;46.43;18.07;;;0.80;99.90;;;;;;4341453;28;659110;-72
2022/01/26 00:55:52;;;;;;;46.57;19.13;;;0.80;99.90;;;;;;4339071;28;659384;-71
2022/01/26 00:58:44;;;;;;;47.23;18.53;;;0.80;99.90;;;;;;4342710;28;658722;-71
2022/01/26 01:01:33;;;;;;;52.67;19.20;;;0.90;99.90;;;;;;4339118;28;659526;-72
2022/01/26 01:04:22;;;;;;;51.60;19.67;;;0.80;99.90;;;;;;4338768;28;659969;-71
2022/01/26 01:07:17;;;;;;;55.27;20.10;;;0.80;99.90;;;;;;4342737;28;658685;-72
2022/01/26 01:10:07;;;;;;;52.58;19.17;;;0.80;99.90;;;;;;4311308;28;659249;-71
2022/01/26 01:12:57;;;;;;;56.97;20.40;;;0.80;99.90;;;;;;4349022;28;658784;-71
2022/01/26 01:15:48;;;;;;;49.07;16.60;;;0.90;99.90;;;;;;4342469;28;659133;-72
2022/01/26 01:18:43;;;;;;;50.23;19.00;;;0.90;99.90;;;;;;4338597;28;659623;-72
2022/01/26 01:30:45;;;;;;;45.10;17.43;;;0.80;99.90;;;;;;4343747;28;659018;-71
2022/01/26 01:33:38;;;;;;;44.88;15.88;;;0.90;99.90;;;;;;4354949;28;659318;-72
2022/01/26 01:36:26;;;;;;;45.63;16.93;;;0.90;99.90;;;;;;4320109;28;659311;-71
2022/01/26 01:39:14;;;;;;;42.53;16.60;;;0.90;99.90;;;;;;4345422;28;659333;-72
2022/01/26 01:42:02;;;;;;;36.93;14.53;;;0.80;99.90;;;;;;4362836;28;659832;-71
2022/01/26 01:44:49;;;;;;;43.60;17.40;;;0.90;99.90;;;;;;4342357;28;658375;-72
2022/01/26 01:47:37;;;;;;;50.37;16.20;;;0.90;99.90;;;;;;4378389;28;659593;-73
2022/01/26 01:50:26;;;;;;;46.90;17.83;;;0.80;99.90;;;;;;4355915;28;658706;-72
2022/01/26 01:53:16;;;;;;;43.87;16.63;;;0.80;99.90;;;;;;4360957;28;659330;-72
2022/01/26 01:56:04;;;;;;;46.30;17.97;;;0.80;99.90;;;;;;4375217;28;658351;-71
2022/01/26 01:58:53;;;;;;;47.67;18.30;;;0.80;99.90;;;;;;4378253;28;660091;-72
2022/01/26 02:01:40;;;;;;;40.27;15.47;;;0.80;99.90;;;;;;4354748;28;659840;-72
2022/01/26 02:04:28;;;;;;;42.17;16.43;;;0.70;99.90;;;;;;4360652;28;659191;-71
2022/01/26 02:07:17;;;;;;;34.47;15.03;;;0.80;99.90;;;;;;4325842;28;659262;-72
2022/01/26 02:10:06;;;;;;;31.73;13.10;;;0.80;99.90;;;;;;4342897;28;659251;-71
2022/01/26 02:12:56;;;;;;;30.23;11.63;;;0.80;99.90;;;;;;4335161;28;659050;-71
2022/01/26 02:15:50;;;;;;;34.57;14.70;;;0.70;99.90;;;;;;4326452;28;659036;-72
2022/01/26 02:18:56;;;;;;;35.40;14.73;;;0.80;99.90;;;;;;4312539;28;658402;-72
2022/01/26 02:50:12;;;;;;;46.30;17.17;;;0.80;99.90;;;;;;4303405;28;658884;-72
2022/01/26 02:53:21;;;;;;;43.50;15.43;;;0.80;99.90;;;;;;4325353;28;658266;-71
2022/01/26 02:56:16;;;;;;;43.20;16.03;;;0.80;99.90;;;;;;4299945;28;659106;-71
2022/01/26 02:59:25;;;;;;;59.70;17.87;;;0.80;99.90;;;;;;4305888;28;658866;-72
2022/01/26 03:02:24;;;;;;;40.77;16.07;;;0.80;99.90;;;;;;4320739;28;658498;-71
2022/01/26 03:05:14;;;;;;;37.73;14.37;;;0.80;99.90;;;;;;4320563;28;659281;-72
2022/01/26 03:08:06;;;;;;;42.27;15.97;;;0.80;99.90;;;;;;4321306;28;659507;-72
2022/01/26 03:10:56;;;;;;;47.37;16.10;;;0.80;99.90;;;;;;4315111;28;658706;-72
2022/01/26 03:13:48;;;;;;;48.03;15.03;;;0.80;99.90;;;;;;4328095;28;659031;-72
2022/01/26 03:16:42;;;;;;;41.20;15.23;;;0.80;99.90;;;;;;4317973;28;659699;-71
2022/01/26 03:19:36;;;;;;;40.53;13.10;;;0.80;99.90;;;;;;4298828;28;659152;-72
2022/01/26 03:28:42;;;;;;;45.60;16.42;;;0.80;99.90;;;;;;4325490;28;659040;-72
2022/01/26 03:32:00;;;;;;;62.27;17.30;;;0.80;99.90;;;;;;4298279;28;659970;-71
2022/01/26 03:34:52;;;;;;;54.60;17.13;;;0.80;99.90;;;;;;4297803;28;659583;-72
2022/01/26 03:37:49;;;;;;;61.30;17.60;;;0.80;99.90;;;;;;4301856;28;659661;-72
2022/01/26 03:40:41;;;;;;;49.43;17.87;;;0.90;99.90;;;;;;4320648;28;658387;-71
2022/01/26 03:43:29;;;;;;;47.53;17.20;;;0.90;99.90;;;;;;4317569;28;658897;-71
2022/01/26 03:46:21;;;;;;;64.30;19.27;;;0.90;99.90;;;;;;4359679;28;659406;-72
2022/01/26 03:49:10;;;;;;;69.43;20.03;;;0.80;99.90;;;;;;4321676;28;658340;-72
2022/01/26 03:51:59;;;;;;;73.10;20.70;;;0.80;99.90;;;;;;4359395;28;658717;-72
2022/01/26 03:54:48;;;;;;;67.20;18.40;;;0.80;99.90;;;;;;4337572;28;659525;-72
2022/01/26 03:57:39;;;;;;;60.03;14.90;;;0.80;99.90;;;;;;4325152;28;659230;-71
2022/01/26 04:00:30;;;;;;;59.40;15.70;;;0.80;99.90;;;;;;4321686;28;660358;-71
2022/01/26 04:03:23;;;;;;;54.73;16.60;;;0.80;99.90;;;;;;4320342;28;658571;-71
2022/01/26 04:06:12;;;;;;;64.93;18.40;;;0.80;99.90;;;;;;4310471;28;659141;-72
2022/01/26 04:09:04;;;;;;;49.97;15.77;;;0.80;99.90;;;;;;4340059;28;658663;-71
2022/01/26 04:11:54;;;;;;;52.93;15.73;;;0.80;99.90;;;;;;4335767;28;659705;-72
2022/01/26 04:14:54;;;;;;;51.97;16.93;;;0.80;99.90;;;;;;4335163;28;659484;-72
2022/01/26 04:17:47;;;;;;;53.80;16.17;;;0.80;99.90;;;;;;4335734;28;658787;-71
2022/01/26 04:20:39;;;;;;;47.03;15.40;;;0.80;99.90;;;;;;4314102;28;659335;-71
2022/01/26 04:23:34;;;;;;;37.07;13.17;;;0.90;99.90;;;;;;4336503;28;660351;-72
2022/01/26 04:26:28;;;;;;;37.10;15.00;;;0.80;99.90;;;;;;4336201;28;658791;-71
2022/01/26 04:29:21;;;;;;;32.87;13.50;;;0.90;99.90;;;;;;4313739;28;659194;-72
2022/01/26 04:32:13;;;;;;;37.20;14.90;;;0.80;99.90;;;;;;4321537;28;658807;-72
2022/01/26 04:35:01;;;;;;;44.90;15.83;;;0.80;99.90;;;;;;4344577;28;660990;-72
2022/01/26 04:38:11;;;;;;;40.93;14.33;;;0.70;99.90;;;;;;4371194;28;658537;-72
2022/01/26 04:41:11;;;;;;;51.67;16.00;;;0.80;99.90;;;;;;4332434;28;659279;-72
2022/01/26 04:44:04;;;;;;;39.43;14.37;;;0.80;99.90;;;;;;4319815;28;659066;-72
2022/01/26 04:46:55;;;;;;;34.57;13.20;;;0.80;99.90;;;;;;4355860;28;659248;-72
2022/01/26 04:49:45;;;;;;;45.60;15.53;;;0.80;99.90;;;;;;4360636;28;658330;-72
2022/01/26 04:52:40;;;;;;;38.23;13.17;;;0.80;99.90;;;;;;4339111;28;659358;-71
2022/01/26 04:55:29;;;;;;;41.72;14.60;;;0.80;99.90;;;;;;4338149;28;658608;-72
2022/01/26 04:58:18;;;;;;;48.30;14.80;;;0.80;99.90;;;;;;4356158;28;659404;-71
2022/01/26 05:01:07;;;;;;;43.67;15.53;;;0.90;99.90;;;;;;4339786;28;660338;-72
2022/01/26 05:03:55;;;;;;;36.57;13.53;;;0.90;99.90;;;;;;4339866;28;658884;-71
2022/01/26 05:06:44;;;;;;;43.43;14.73;;;0.90;99.90;;;;;;4367386;28;658113;-71
2022/01/26 05:09:32;;;;;;;33.20;14.20;;;0.80;99.90;;;;;;4355230;28;658999;-71
2022/01/26 05:12:19;;;;;;;28.40;10.90;;;0.80;99.90;;;;;;4358580;28;658908;-72
2022/01/26 05:15:07;;;;;;;29.50;11.43;;;0.80;99.90;;;;;;4378382;28;659062;-71
2022/01/26 05:17:55;;;;;;;31.07;11.90;;;0.70;99.90;;;;;;4358764;28;658431;-72
2022/01/26 05:20:43;;;;;;;29.87;12.80;;;0.80;99.90;;;;;;4361195;28;659374;-71
2022/01/26 05:23:32;;;;;;;29.93;13.33;;;0.80;99.90;;;;;;4339394;28;658330;-72
2022/01/26 05:26:19;;;;;;;28.30;12.10;;;0.80;99.90;;;;;;4342742;28;658489;-72
2022/01/26 05:29:07;;;;;;;32.77;12.83;;;0.80;99.90;;;;;;4364288;28;659387;-71
2022/01/26 05:31:55;;;;;;;31.03;13.97;;;0.80;99.90;;;;;;4357947;28;658528;-72
2022/01/26 05:34:44;;;;;;;36.65;13.73;;;0.80;99.90;;;;;;4360296;28;659660;-72
2022/01/26 05:37:32;;;;;;;31.37;12.60;;;0.80;99.90;;;;;;4354230;28;660234;-71
2022/01/26 05:40:21;;;;;;;30.07;13.57;;;0.80;99.90;;;;;;4357943;28;658618;-72
2022/01/26 05:43:08;;;;;;;33.70;12.90;;;0.80;99.90;;;;;;4360341;28;659270;-71
2022/01/26 05:46:00;;;;;;;35.73;12.33;;;0.80;99.90;;;;;;4353941;28;660320;-72
2022/01/26 05:48:48;;;;;;;41.37;14.87;;;0.80;99.90;;;;;;4353197;28;658809;-71
2022/01/26 05:51:35;;;;;;;55.37;15.77;;;0.80;99.90;;;;;;4358171;28;659135;-71
2022/01/26 05:54:23;;;;;;;47.20;15.73;;;0.80;99.90;;;;;;4376558;28;659441;-72
2022/01/26 05:57:12;;;;;;;34.53;13.93;;;0.80;99.90;;;;;;4357838;28;658624;-72
2022/01/26 06:00:00;;;;;;;36.47;15.33;;;0.80;99.90;;;;;;4358367;28;659355;-72
2022/01/26 06:02:47;;;;;;;37.73;15.27;;;0.80;99.90;;;;;;4376162;28;659853;-72
2022/01/26 06:05:35;;;;;;;47.77;16.83;;;0.80;99.90;;;;;;4355684;28;658856;-72
2022/01/26 06:08:22;;;;;;;26.70;10.73;;;0.80;99.90;;;;;;4360974;28;658623;-72
2022/01/26 06:11:10;;;;;;;33.63;14.03;;;0.70;99.90;;;;;;4358107;28;659237;-72
2022/01/26 06:13:59;;;;;;;30.53;12.53;;;0.70;99.90;;;;;;4376411;28;659077;-71
2022/01/26 06:16:47;;;;;;;42.43;15.77;;;0.70;99.90;;;;;;4337426;28;658781;-71
2022/01/26 06:19:35;;;;;;;41.90;16.80;;;0.70;99.90;;;;;;4341698;28;659164;-72
2022/01/26 06:22:22;;;;;;;44.63;17.60;;;0.80;99.90;;;;;;4359585;28;659259;-71
2022/01/26 06:25:10;;;;;;;37.50;14.97;;;0.80;99.90;;;;;;4342044;28;659421;-71
2022/01/26 06:27:59;;;;;;;40.37;13.97;;;0.80;99.90;;;;;;4360906;28;658489;-71
2022/01/26 06:30:48;;;;;;;54.80;16.53;;;0.80;99.90;;;;;;4338147;28;659782;-71
2022/01/26 06:33:36;;;;;;;43.33;17.23;;;0.80;99.90;;;;;;4337704;28;659514;-72
2022/01/26 06:36:24;;;;;;;37.03;15.57;;;0.70;99.90;;;;;;4348149;28;658669;-72
2022/01/26 06:39:16;;;;;;;37.90;15.53;;;0.80;99.90;;;;;;4364766;28;659145;-71
2022/01/26 06:42:12;;;;;;;50.60;17.55;;;0.70;99.90;;;;;;4353699;28;659584;-71
2022/01/26 06:45:14;;;;;;;44.27;15.67;;;0.80;99.90;;;;;;4317620;28;658997;-73
2022/01/26 06:51:14;;;;;;;50.43;17.80;;;0.80;99.90;;;;;;4313712;28;658868;-72
2022/01/26 06:54:01;;;;;;;39.97;14.03;;;0.80;99.90;;;;;;4363227;28;659210;-71
2022/01/26 06:56:49;;;;;;;44.17;16.90;;;0.80;99.90;;;;;;4340984;28;658483;-72
2022/01/26 06:59:37;;;;;;;34.43;13.67;;;0.80;99.90;;;;;;4359048;28;658923;-71
2022/01/26 07:02:24;;;;;;;47.73;15.97;;;0.80;99.90;;;;;;4340906;28;658616;-71
2022/01/26 07:05:14;;;;;;;46.20;15.67;;;0.90;99.90;;;;;;4359042;28;659522;-72
2022/01/26 07:08:01;;;;;;;42.63;15.73;;;0.80;99.90;;;;;;4341716;28;658591;-71
2022/01/26 07:10:51;;;;;;;42.07;17.43;;;0.90;99.90;;;;;;4341047;28;658890;-72
2022/01/26 07:13:40;;;;;;;47.77;17.40;;;0.90;99.90;;;;;;4370661;28;658831;-72
2022/01/26 07:19:54;;;;;;;47.57;16.70;;;0.80;99.90;;;;;;4336452;28;659538;-71
2022/01/26 07:22:52;;;;;;;43.42;16.60;;;0.90;99.90;;;;;;4318277;28;659609;-71
2022/01/26 07:25:46;;;;;;;48.83;17.58;;;0.90;99.90;;;;;;4318178;28;658821;-72
2022/01/26 07:28:46;;;;;;;38.67;14.93;;;0.90;99.90;;;;;;4324852;28;658473;-72
2022/01/26 07:31:42;;;;;;;46.07;18.67;;;0.90;99.90;;;;;;4337033;28;658256;-71
2022/01/26 07:34:30;;;;;;;50.70;18.83;;;0.90;99.90;;;;;;4333709;28;658788;-71
2022/01/26 07:37:18;;;;;;;56.55;19.00;;;0.90;99.90;;;;;;4376156;28;659974;-71
2022/01/26 07:40:09;;;;;;;41.40;15.37;;;0.90;99.90;;;;;;4357159;28;659306;-71
2022/01/26 07:42:57;;;;;;;47.67;18.63;;;0.90;99.90;;;;;;4353533;28;660107;-71
2022/01/26 07:45:47;;;;;;;68.28;20.45;;;0.90;99.90;;;;;;4356904;28;658979;-71
2022/01/26 07:48:35;;;;;;;62.50;19.73;;;0.90;99.90;;;;;;4357418;28;658487;-72
2022/01/26 07:51:22;;;;;;;49.20;17.63;;;1.00;99.90;;;;;;4376085;28;659805;-71
2022/01/26 07:54:10;;;;;;;74.33;21.93;;;1.00;99.90;;;;;;4340572;28;658722;-72
2022/01/26 07:57:00;;;;;;;74.50;22.67;;;0.90;99.90;;;;;;4358942;28;659251;-71
2022/01/26 07:59:48;;;;;;;62.00;22.07;;;0.90;99.90;;;;;;4336101;28;659050;-71
2022/01/26 08:02:41;;;;;;;72.83;23.10;;;1.00;99.90;;;;;;4336660;28;658467;-72
2022/01/26 08:05:34;;;;;;;65.35;22.80;;;1.00;99.90;;;;;;4333419;28;659131;-72
2022/01/26 08:08:26;;;;;;;60.20;20.42;;;1.00;99.90;;;;;;4360869;28;658929;-71
2022/01/26 08:11:14;;;;;;;65.28;21.70;;;1.00;99.90;;;;;;4337230;28;658554;-72
2022/01/26 08:14:03;;;;;;;56.93;21.30;;;1.00;99.90;;;;;;4379408;28;660529;-71
2022/01/26 08:16:51;;;;;;;69.83;21.43;;;1.00;99.90;;;;;;4339290;28;660087;-71
2022/01/26 08:19:38;;;;;;;50.73;17.27;;;1.00;99.90;;;;;;4362368;28;658305;-71
2022/01/26 08:22:28;;;;;;;66.13;21.13;;;1.00;99.90;;;;;;4339964;28;660347;-71
2022/01/26 08:25:15;;;;;;;78.90;17.73;;;1.00;99.90;;;;;;4358011;28;659220;-71
2022/01/26 08:28:08;;;;;;;64.23;21.37;;;0.90;99.90;;;;;;4378930;28;659278;-71
2022/01/26 08:30:57;;;;;;;52.23;17.57;;;1.00;99.90;;;;;;4343973;28;658615;-71
2022/01/26 08:33:45;;;;;;;51.40;17.57;;;1.00;99.90;;;;;;4343300;28;658554;-72
2022/01/26 08:36:32;;;;;;;54.87;18.40;;;1.00;99.90;;;;;;4360756;28;660427;-72
2022/01/26 08:39:21;;;;;;;73.07;22.10;;;1.00;99.90;;;;;;4342834;28;659285;-71
2022/01/26 08:42:11;;;;;;;65.13;18.47;;;1.10;99.90;;;;;;4355234;28;658714;-72
2022/01/26 08:45:04;;;;;;;73.13;21.40;;;1.10;99.90;;;;;;4361763;28;659231;-71
2022/01/26 08:48:03;;;;;;;58.00;19.17;;;1.10;99.90;;;;;;4339473;28;659178;-72
2022/01/26 08:50:50;;;;;;;86.70;22.27;;;1.10;99.90;;;;;;4333421;28;658730;-71
2022/01/26 08:53:38;;;;;;;59.03;18.33;;;1.20;99.90;;;;;;4361402;28;659012;-71
2022/01/26 08:56:26;;;;;;;53.03;18.50;;;1.20;99.90;;;;;;4342881;28;658698;-71
2022/01/26 08:59:14;;;;;;;58.50;20.70;;;1.30;99.90;;;;;;4361847;28;658322;-71
2022/01/26 09:02:09;;;;;;;54.73;18.20;;;1.40;99.90;;;;;;4339186;28;659794;-71
2022/01/26 09:05:06;;;;;;;44.13;15.63;;;1.50;99.90;;;;;;4319375;28;659672;-71
2022/01/26 09:08:00;;;;;;;73.10;22.53;;;1.40;99.90;;;;;;4305991;28;658928;-71
2022/01/26 09:11:00;;;;;;;35.88;13.68;;;1.40;99.90;;;;;;4307354;28;659732;-71
2022/01/26 09:13:56;;;;;;;48.97;19.80;;;1.50;99.90;;;;;;4305983;28;659013;-71
2022/01/26 09:16:45;;;;;;;51.73;17.90;;;1.50;99.90;;;;;;4305153;28;658862;-71
2022/01/26 09:19:39;;;;;;;55.00;19.93;;;1.60;99.90;;;;;;4306685;28;658807;-72
2022/01/26 09:22:33;;;;;;;52.13;18.80;;;1.70;99.90;;;;;;4307022;28;659084;-71
2022/01/26 09:25:24;;;;;;;57.30;22.37;;;1.60;99.90;;;;;;4308886;28;658762;-71
2022/01/26 09:28:12;;;;;;;67.45;20.50;;;1.70;99.90;;;;;;4310556;28;660096;-71
2022/01/26 09:31:00;;;;;;;50.47;20.20;;;1.60;99.90;;;;;;4310197;28;658607;-72
2022/01/26 09:33:47;;;;;;;61.13;19.77;;;1.70;99.90;;;;;;4328396;28;659003;-71
2022/01/26 09:36:35;;;;;;;64.73;19.67;;;1.50;99.90;;;;;;4309593;28;659105;-71
2022/01/26 09:39:28;;;;;;;52.13;19.45;;;1.50;99.90;;;;;;4328505;28;659684;-71
2022/01/26 09:42:26;;;;;;;49.47;19.07;;;1.60;99.90;;;;;;4283432;28;659328;-71
2022/01/26 09:45:21;;;;;;;53.30;18.17;;;1.70;99.90;;;;;;4305210;28;658454;-72
2022/01/26 09:48:18;;;;;;;54.00;16.07;;;1.60;99.90;;;;;;4305576;28;659239;-71
2022/01/26 09:51:14;;;;;;;53.90;16.37;;;1.50;99.90;;;;;;4287385;28;659216;-71
2022/01/26 09:54:10;;;;;;;56.27;19.17;;;1.50;99.90;;;;;;4286944;28;659450;-72
2022/01/26 09:57:03;;;;;;;48.93;16.17;;;1.50;99.90;;;;;;4305335;28;659030;-72
2022/01/26 09:59:55;;;;;;;57.90;19.50;;;1.50;99.90;;;;;;4283312;28;659343;-71
2022/01/26 10:02:45;;;;;;;63.23;19.93;;;1.60;99.90;;;;;;4304309;28;658926;-71
2022/01/26 10:05:49;;;;;;;49.87;18.87;;;1.60;99.90;;;;;;4312412;28;659468;-72
2022/01/26 10:09:01;;;;;;;53.00;16.63;;;1.60;99.90;;;;;;4315651;28;658853;-71
2022/01/26 10:18:15;;;;;;;99.03;25.90;;;1.70;99.90;;;;;;4285169;29;659233;-71
2022/01/26 10:21:04;;;;;;;70.50;16.40;;;1.70;99.90;;;;;;4284709;29;660234;-73
2022/01/26 10:23:52;;;;;;;109.27;23.27;;;1.60;99.90;;;;;;4285384;29;659395;-71
2022/01/26 10:26:40;;;;;;;90.13;22.23;;;1.60;99.90;;;;;;4287130;29;659580;-72
2022/01/26 10:29:29;;;;;;;40.13;12.17;;;1.60;99.90;;;;;;4310740;29;660133;-71
2022/01/26 10:32:34;;;;;;;105.13;21.93;;;1.60;99.90;;;;;;4273135;28;659880;-72
2022/01/26 10:35:27;;;;;;;74.57;18.33;;;1.50;99.90;;;;;;4242288;29;660434;-72
2022/01/26 10:38:18;;;;;;;122.20;23.13;;;1.50;99.90;;;;;;4271554;29;658644;-71
2022/01/26 10:41:24;;;;;;;139.97;24.70;;;1.40;99.90;;;;;;4230232;29;660026;-71
2022/01/26 10:44:16;;;;;;;54.63;15.97;;;1.40;99.90;;;;;;4251412;29;660385;-72
2022/01/26 10:47:06;;;;;;;82.53;20.40;;;1.40;99.90;;;;;;4255897;29;658858;-72
2022/01/26 10:50:19;;;;;;;117.57;21.53;;;1.40;99.90;;;;;;4268107;29;659844;-72
2022/01/26 10:53:15;;;;;;;96.47;19.27;;;1.50;99.90;;;;;;4269839;29;660311;-72
2022/01/26 10:56:07;;;;;;;96.17;20.63;;;1.50;99.90;;;;;;4315100;28;659030;-72
2022/01/26 10:58:57;;;;;;;118.27;22.83;;;1.50;99.90;;;;;;4319873;28;658455;-71
2022/01/26 11:01:45;;;;;;;163.33;24.93;;;1.50;99.90;;;;;;4310482;28;659275;-72
2022/01/26 11:04:33;;;;;;;86.97;21.83;;;1.50;99.90;;;;;;4362731;28;660664;-71
2022/01/26 11:07:30;;;;;;;67.57;19.70;;;1.50;99.90;;;;;;4340183;28;660214;-72
2022/01/26 11:10:18;;;;;;;62.00;19.63;;;1.40;99.90;;;;;;4336728;28;659050;-72
2022/01/26 11:13:06;;;;;;;74.67;18.03;;;1.40;99.90;;;;;;4339950;28;658458;-72
2022/01/26 11:15:54;;;;;;;79.13;18.77;;;1.40;99.90;;;;;;4356995;28;658696;-72
2022/01/26 11:18:49;;;;;;;55.03;20.77;;;1.40;99.90;;;;;;4319961;28;658963;-71
2022/01/26 11:21:39;;;;;;;33.50;13.87;;;1.40;99.90;;;;;;4297047;28;658905;-72
2022/01/26 11:24:28;;;;;;;63.83;19.93;;;1.40;99.90;;;;;;4340381;28;658563;-71
2022/01/26 11:27:16;;;;;;;71.77;19.73;;;1.40;99.90;;;;;;4339894;28;658679;-72
2022/01/26 11:30:21;;;;;;;55.33;18.63;;;1.50;99.90;;;;;;4341554;28;658772;-72
2022/01/26 11:33:14;;;;;;;50.87;19.33;;;1.50;99.90;;;;;;4320146;28;658818;-72
2022/01/26 11:36:01;;;;;;;52.43;20.00;;;1.60;99.90;;;;;;4323500;28;658977;-72
2022/01/26 11:42:11;;;;;;;44.47;12.00;;;1.60;99.90;;;;;;4341441;28;658370;-71
2022/01/26 11:45:02;;;;;;;40.93;14.87;;;1.60;99.90;;;;;;4336408;28;659577;-71
2022/01/26 11:45:36;;;;;;;48.70;18.77;;;1.50;99.90;;;;;;4298533;28;659114;-72
2022/01/26 11:48:25;;;;;;;59.73;19.23;;;1.50;99.90;;;;;;4342842;28;659531;-72
2022/01/26 11:51:12;;;;;;;47.70;18.83;;;1.50;99.90;;;;;;4322886;28;659344;-71
2022/01/26 11:54:10;;;;;;;62.63;20.53;;;1.60;99.90;;;;;;4340827;28;658744;-71
2022/01/26 11:57:03;;;;;;;50.53;18.23;;;1.60;99.90;;;;;;4319611;28;659501;-71
2022/01/26 12:00:03;;;;;;;45.23;19.07;;;1.60;99.90;;;;;;4301549;28;658623;-72
2022/01/26 12:02:56;;;;;;;38.97;18.33;;;1.50;99.90;;;;;;4300838;28;659491;-71
2022/01/26 12:05:47;;;;;;;47.67;19.93;;;1.60;99.90;;;;;;4317784;28;659186;-71
2022/01/26 12:08:37;;;;;;;46.10;18.67;;;1.50;99.90;;;;;;4335866;28;658946;-71
2022/01/26 12:11:24;;;;;;;37.03;16.07;;;1.50;99.90;;;;;;4319221;28;659536;-71
2022/01/26 12:14:13;;;;;;;36.77;15.17;;;1.50;99.90;;;;;;4319498;28;660529;-72
2022/01/26 12:17:05;;;;;;;42.97;18.27;;;1.50;99.90;;;;;;4324090;28;658590;-71
2022/01/26 12:20:11;;;;;;;46.97;20.30;;;1.50;99.90;;;;;;4334273;28;659489;-71
2022/01/26 12:35:53;;;;;;;37.97;15.87;;;1.60;99.90;;;;;;4332459;28;659241;-72
2022/01/26 12:38:44;;;;;;;28.57;12.40;;;1.60;99.90;;;;;;4310443;28;658681;-72
2022/01/26 12:41:33;;;;;;;34.67;16.50;;;1.60;99.90;;;;;;4340070;28;659115;-72
2022/01/26 12:44:21;;;;;;;34.33;15.87;;;1.60;99.90;;;;;;4339871;28;658648;-71
2022/01/26 12:47:08;;;;;;;33.73;16.33;;;1.60;99.90;;;;;;4358840;28;660002;-71
2022/01/26 12:49:57;;;;;;;34.13;14.37;;;1.60;99.90;;;;;;4357263;28;658609;-71
2022/01/26 12:52:46;;;;;;;25.43;12.30;;;1.60;99.90;;;;;;4353192;28;658873;-71
2022/01/26 12:55:37;;;;;;;30.53;13.80;;;1.50;99.90;;;;;;4361738;28;658638;-71
2022/01/26 12:58:26;;;;;;;33.60;16.38;;;1.50;99.90;;;;;;4336808;28;659223;-71
2022/01/26 13:01:17;;;;;;;29.77;14.20;;;1.50;99.90;;;;;;4359578;28;658770;-71
2022/01/26 13:04:06;;;;;;;28.95;15.20;;;1.50;99.90;;;;;;4335471;28;659234;-71
2022/01/26 13:07:00;;;;;;;38.07;16.47;;;1.50;99.90;;;;;;4361941;28;659536;-71
2022/01/26 13:09:48;;;;;;;33.57;16.27;;;1.50;99.90;;;;;;4338589;28;658646;-71
2022/01/26 13:12:35;;;;;;;36.37;17.13;;;1.50;99.90;;;;;;4342653;28;659567;-71
2022/01/26 13:15:39;;;;;;;37.17;17.30;;;1.60;99.90;;;;;;4361916;28;659592;-71
2022/01/26 13:25:01;;;;;;;35.72;16.85;;;1.60;99.90;;;;;;4309271;28;659152;-71
2022/01/26 13:34:34;;;;;;;36.80;17.10;;;1.60;99.90;;;;;;4319912;28;659310;-71
2022/01/26 13:37:32;;;;;;;35.13;16.97;;;1.60;99.90;;;;;;4342794;28;658968;-71
2022/01/26 13:40:44;;;;;;;38.85;17.73;;;1.60;99.90;;;;;;4335286;28;658248;-71
2022/01/26 13:47:16;;;;;;;34.53;15.93;;;1.60;99.90;;;;;;4355239;28;658788;-70
2022/01/26 13:50:18;;;;;;;36.03;15.60;;;1.50;99.90;;;;;;4342869;28;658376;-71
2022/01/26 13:53:09;;;;;;;37.27;17.30;;;1.50;99.90;;;;;;4316455;28;659158;-71
2022/01/26 13:56:09;;;;;;;33.83;15.70;;;1.40;99.90;;;;;;4359287;28;659596;-71
2022/01/26 13:59:09;;;;;;;31.07;12.33;;;1.40;99.90;;;;;;4335986;28;658902;-71
2022/01/26 14:01:58;;;;;;;30.80;13.52;;;1.40;99.90;;;;;;4337659;28;658913;-71
2022/01/26 14:04:46;;;;;;;38.97;18.10;;;1.30;99.90;;;;;;4341296;28;658543;-71
2022/01/26 14:07:34;;;;;;;33.40;15.70;;;1.30;99.90;;;;;;4360630;28;658667;-71
2022/01/26 14:10:22;;;;;;;34.53;17.00;;;1.30;99.90;;;;;;4342057;28;658485;-71
2022/01/26 14:13:21;;;;;;;38.57;18.07;;;1.20;99.90;;;;;;4360461;28;658497;-71
2022/01/26 14:16:17;;;;;;;32.00;15.73;;;1.20;99.90;;;;;;4338259;28;659208;-71
2022/01/26 14:19:14;;;;;;;37.23;17.53;;;1.20;99.90;;;;;;4360638;28;659060;-70
2022/01/26 14:22:31;;;;;;;32.80;15.47;;;1.20;99.90;;;;;;4340398;28;658823;-71
2022/01/26 14:25:26;;;;;;;34.20;16.80;;;1.20;99.90;;;;;;4337842;28;658729;-71
2022/01/26 14:28:17;;;;;;;37.70;16.27;;;1.30;99.90;;;;;;4337442;28;658780;-71
2022/01/26 14:31:11;;;;;;;35.67;16.97;;;1.30;99.90;;;;;;4327155;28;658398;-71
2022/01/26 14:34:33;;;;;;;36.07;17.83;;;1.30;99.90;;;;;;4336398;28;659647;-70
2022/01/26 14:40:43;;;;;;;41.20;18.50;;;1.20;99.90;;;;;;4298329;28;659992;-71
2022/01/26 15:08:55;;;;;;;35.10;15.70;;;1.20;99.90;;;;;;4278540;29;659427;-71
2022/01/26 15:31:17;;;;;;;30.33;15.43;;;1.20;99.90;;;;;;4251800;29;659217;-71
2022/01/26 15:34:11;;;;;;;29.70;14.97;;;1.20;99.90;;;;;;4251229;29;658723;-70
2022/01/26 15:40:17;;;;;;;28.63;14.23;;;1.10;99.90;;;;;;4251337;29;659377;-71
2022/01/26 15:49:45;;;;;;;35.03;17.53;;;1.20;99.90;;;;;;4228687;29;660133;-71
2022/01/26 15:52:47;;;;;;;37.27;18.70;;;1.20;99.90;;;;;;4278006;28;659828;-71
2022/01/26 15:59:02;;;;;;;33.40;17.57;;;1.20;99.90;;;;;;4302339;28;659522;-72
2022/01/26 16:12:40;;;;;;;28.53;15.90;;;1.10;99.90;;;;;;4243287;29;659050;-71
2022/01/26 16:21:10;;;;;;;29.30;14.93;;;1.00;99.90;;;;;;4267549;29;659025;-71
2022/01/26 16:27:53;;;;;;;38.10;18.80;;;1.00;99.90;;;;;;4286363;29;659274;-71
2022/01/26 18:16:29;;;;;;;32.93;15.17;;;1.00;99.90;;;;;;4295730;28;659599;-71
2022/01/26 18:26:07;;;;;;;24.37;10.57;;;1.00;99.90;;;;;;4339084;28;658656;-72
2022/01/26 18:32:18;;;;;;;28.80;14.10;;;0.90;99.90;;;;;;4325929;28;658966;-71
2022/01/26 18:38:55;;;;;;;28.07;13.90;;;0.90;99.90;;;;;;4318964;28;658655;-71
2022/01/26 18:51:00;;;;;;;30.40;14.40;;;0.90;99.90;;;;;;4298203;28;659604;-71
2022/01/26 18:53:56;;;;;;;30.67;14.30;;;1.00;99.90;;;;;;4321335;28;659647;-72
2022/01/26 18:56:49;;;;;;;34.23;15.07;;;0.90;99.90;;;;;;4321430;28;659131;-71
2022/01/26 18:59:43;;;;;;;34.90;15.77;;;0.90;99.90;;;;;;4299409;28;659450;-71
2022/01/26 19:02:36;;;;;;;30.63;15.27;;;0.90;99.90;;;;;;4299116;28;659792;-71
2022/01/26 19:05:27;;;;;;;34.50;16.60;;;0.80;99.90;;;;;;4339185;28;659080;-72
2022/01/26 19:08:23;;;;;;;31.97;14.87;;;0.80;99.90;;;;;;4333364;28;658643;-71
2022/01/26 19:11:20;;;;;;;34.67;17.20;;;0.90;99.90;;;;;;4339802;28;658672;-70
2022/01/26 19:14:13;;;;;;;37.87;17.63;;;0.80;99.90;;;;;;4330462;28;659547;-71
2022/01/26 19:17:10;;;;;;;34.07;15.43;;;0.80;99.90;;;;;;4317565;28;658660;-72
2022/01/26 19:20:11;;;;;;;35.53;16.43;;;0.80;99.90;;;;;;4318215;28;658893;-71
2022/01/26 19:23:26;;;;;;;31.10;15.07;;;0.80;99.90;;;;;;4337135;28;659346;-71
2022/01/26 19:26:30;;;;;;;33.37;16.57;;;0.80;99.90;;;;;;4336573;28;658588;-71
2022/01/26 19:29:29;;;;;;;34.97;15.53;;;0.80;99.90;;;;;;4314319;28;659115;-71
2022/01/26 19:44:50;;;;;;;28.00;13.07;;;0.80;99.90;;;;;;4986236;27;131111;-71
2022/01/26 19:50:56;;;;;;;33.20;15.67;;;0.70;99.90;;;;;;4465224;27;651732;-71
2022/01/26 19:53:51;;;;;;;36.60;16.15;;;0.70;99.90;;;;;;4459935;27;651917;-71
2022/01/26 19:56:44;;;;;;;33.47;15.73;;;0.70;99.90;;;;;;4464156;28;651467;-71
2022/01/26 19:59:34;;;;;;;30.97;14.67;;;0.70;99.90;;;;;;4445153;28;651178;-72